Portada
METAR-TAF:

METAR-TAF

Aeroports :

Yap, Micronèsia

latitud: 09-29N, longitud: 138-05E, altitud: 28 m

Observació

L'informe es va fer fa 1 hora i 4 minuts, a les 10:51 UTC
Vent 5 kt amb direcció variable
Temperatura 28°C
Humitat 79%
Pressió 1013 hPa
Visibilitat: 19.3 km
Escasses núvols a una alçada de 1600 ft
Cel ennuvolat a una alçada de 30000 ft

METAR: PTYA 251051Z VRB05KT 12SM FEW016 BKN300 28/24 A2991 RMK SLP130 T02820243

Hora: 21:55 (11:55 UTC)

Pronòstic

L'informe es va fer fa 27 minuts, a les 11:28 UTC
Pronòstic vàlid del 25 a les 12 UTC al 26 a les 12 UTC
Vent 10 kt del Est
Visibilitat: 10 km
Escasses núvols a una alçada de 1800 ft

TAF: PTYA 251128Z 2512/2612 08010KT P6SM FEW018

Observacions i pronòstics meteorològics de més de 4000 aeroports (METAR i TAF).

Les estacions disponibles són els punts grocs i vermells al mapa.

Posi el ratolí al punt desitjat per veure el nom de l'estació.

Feu clic per veure les observacions i els pronòstics meteorològics.

Per canviar el mapa: feu clic els botons verds amb una creu de color negre per apropar; al botó verd amb un guió per allunyar la imatge; o en les fletxes verdes per a mapes adjacents.


METAR-TAF: